sensor_id;sensor_type;location;lat;lon;timestamp;pressure;altitude;pressure_sealevel;temperature;humidity
62632;BME280;48703;51.248;-0.546;2023-04-27T00:00:39;101216;;;6.79;77.21
62632;BME280;48703;51.248;-0.546;2023-04-27T00:03:41;101217;;;6.74;76.91
62632;BME280;48703;51.248;-0.546;2023-04-27T00:06:43;101217;;;6.70;76.77
62632;BME280;48703;51.248;-0.546;2023-04-27T00:09:45;101218;;;6.66;77.07
62632;BME280;48703;51.248;-0.546;2023-04-27T00:12:47;101216;;;6.62;77.64
62632;BME280;48703;51.248;-0.546;2023-04-27T00:15:49;101214;;;6.58;77.29
62632;BME280;48703;51.248;-0.546;2023-04-27T00:18:51;101215;;;6.53;77.28
62632;BME280;48703;51.248;-0.546;2023-04-27T00:21:53;101214;;;6.48;77.72
62632;BME280;48703;51.248;-0.546;2023-04-27T00:24:55;101210;;;6.43;77.83
62632;BME280;48703;51.248;-0.546;2023-04-27T00:27:57;101206;;;6.38;78.89
62632;BME280;48703;51.248;-0.546;2023-04-27T00:30:59;101203;;;6.33;78.16
62632;BME280;48703;51.248;-0.546;2023-04-27T00:34:01;101196;;;6.27;78.02
62632;BME280;48703;51.248;-0.546;2023-04-27T00:37:04;101189;;;6.22;78.89
62632;BME280;48703;51.248;-0.546;2023-04-27T00:40:06;101185;;;6.19;78.63
62632;BME280;48703;51.248;-0.546;2023-04-27T00:43:07;101180;;;6.16;78.91
62632;BME280;48703;51.248;-0.546;2023-04-27T00:46:10;101178;;;6.14;78.96
62632;BME280;48703;51.248;-0.546;2023-04-27T00:49:11;101176;;;6.01;79.67
62632;BME280;48703;51.248;-0.546;2023-04-27T00:52:13;101169;;;5.95;79.51
62632;BME280;48703;51.248;-0.546;2023-04-27T00:55:15;101162;;;5.94;79.95
62632;BME280;48703;51.248;-0.546;2023-04-27T00:58:17;101153;;;5.90;79.67
62632;BME280;48703;51.248;-0.546;2023-04-27T01:01:19;101152;;;5.87;80.19
62632;BME280;48703;51.248;-0.546;2023-04-27T01:04:22;101144;;;5.83;80.51
62632;BME280;48703;51.248;-0.546;2023-04-27T01:07:24;101139;;;5.81;80.06
62632;BME280;48703;51.248;-0.546;2023-04-27T01:10:25;101133;;;5.83;80.29
62632;BME280;48703;51.248;-0.546;2023-04-27T01:13:28;101127;;;5.81;80.05
62632;BME280;48703;51.248;-0.546;2023-04-27T01:16:30;101122;;;5.80;80.37
62632;BME280;48703;51.248;-0.546;2023-04-27T01:19:32;101115;;;5.77;80.64
62632;BME280;48703;51.248;-0.546;2023-04-27T01:22:34;101108;;;5.75;80.90
62632;BME280;48703;51.248;-0.546;2023-04-27T01:25:36;101108;;;5.76;81.23
62632;BME280;48703;51.248;-0.546;2023-04-27T01:28:38;101103;;;5.76;81.48
62632;BME280;48703;51.248;-0.546;2023-04-27T01:31:40;101101;;;5.77;81.15
62632;BME280;48703;51.248;-0.546;2023-04-27T01:34:42;101097;;;5.80;80.98
62632;BME280;48703;51.248;-0.546;2023-04-27T01:37:44;101102;;;5.83;81.40
62632;BME280;48703;51.248;-0.546;2023-04-27T01:40:46;101103;;;5.85;81.25
62632;BME280;48703;51.248;-0.546;2023-04-27T01:43:48;101105;;;5.88;80.78
62632;BME280;48703;51.248;-0.546;2023-04-27T01:46:50;101109;;;5.91;80.63
62632;BME280;48703;51.248;-0.546;2023-04-27T01:49:52;101110;;;5.96;80.26
62632;BME280;48703;51.248;-0.546;2023-04-27T01:52:54;101118;;;5.97;81.13
62632;BME280;48703;51.248;-0.546;2023-04-27T01:55:56;101124;;;5.97;80.97
62632;BME280;48703;51.248;-0.546;2023-04-27T01:58:58;101126;;;5.96;81.02
62632;BME280;48703;51.248;-0.546;2023-04-27T02:02:00;101132;;;5.92;80.90
62632;BME280;48703;51.248;-0.546;2023-04-27T02:05:02;101139;;;5.92;80.74
62632;BME280;48703;51.248;-0.546;2023-04-27T02:08:04;101144;;;5.91;80.65
62632;BME280;48703;51.248;-0.546;2023-04-27T02:11:06;101149;;;5.87;81.38
62632;BME280;48703;51.248;-0.546;2023-04-27T02:14:08;101148;;;5.81;80.77
62632;BME280;48703;51.248;-0.546;2023-04-27T02:17:10;101144;;;5.74;80.80
62632;BME280;48703;51.248;-0.546;2023-04-27T02:20:12;101143;;;5.73;81.24
62632;BME280;48703;51.248;-0.546;2023-04-27T02:23:14;101146;;;5.71;81.20
62632;BME280;48703;51.248;-0.546;2023-04-27T02:26:16;101142;;;5.73;81.02
62632;BME280;48703;51.248;-0.546;2023-04-27T02:29:18;101138;;;5.72;81.82
62632;BME280;48703;51.248;-0.546;2023-04-27T02:32:21;101136;;;5.73;81.71
62632;BME280;48703;51.248;-0.546;2023-04-27T02:35:22;101134;;;5.77;81.55
62632;BME280;48703;51.248;-0.546;2023-04-27T02:38:24;101131;;;5.83;81.14
62632;BME280;48703;51.248;-0.546;2023-04-27T02:41:29;101126;;;5.83;81.71
62632;BME280;48703;51.248;-0.546;2023-04-27T02:44:28;101124;;;5.83;81.10
62632;BME280;48703;51.248;-0.546;2023-04-27T02:47:30;101122;;;5.87;81.39
62632;BME280;48703;51.248;-0.546;2023-04-27T02:50:32;101118;;;5.89;81.23
62632;BME280;48703;51.248;-0.546;2023-04-27T02:53:34;101116;;;5.91;81.52
62632;BME280;48703;51.248;-0.546;2023-04-27T02:56:36;101111;;;5.95;81.82
62632;BME280;48703;51.248;-0.546;2023-04-27T02:59:38;101109;;;6.00;82.03
62632;BME280;48703;51.248;-0.546;2023-04-27T03:02:40;101115;;;6.01;82.30
62632;BME280;48703;51.248;-0.546;2023-04-27T03:05:42;101119;;;6.02;81.17
62632;BME280;48703;51.248;-0.546;2023-04-27T03:08:44;101121;;;6.05;81.71
62632;BME280;48703;51.248;-0.546;2023-04-27T03:11:46;101119;;;6.06;82.08
62632;BME280;48703;51.248;-0.546;2023-04-27T03:14:48;101119;;;6.08;81.59
62632;BME280;48703;51.248;-0.546;2023-04-27T03:17:50;101111;;;6.11;81.91
62632;BME280;48703;51.248;-0.546;2023-04-27T03:20:52;101100;;;6.14;81.55
62632;BME280;48703;51.248;-0.546;2023-04-27T03:23:54;101094;;;6.18;81.26
62632;BME280;48703;51.248;-0.546;2023-04-27T03:26:56;101090;;;6.21;81.60
62632;BME280;48703;51.248;-0.546;2023-04-27T03:29:58;101087;;;6.25;81.06
62632;BME280;48703;51.248;-0.546;2023-04-27T03:33:00;101090;;;6.30;80.93
62632;BME280;48703;51.248;-0.546;2023-04-27T03:36:03;101089;;;6.33;81.02
62632;BME280;48703;51.248;-0.546;2023-04-27T03:39:04;101085;;;6.35;81.38
62632;BME280;48703;51.248;-0.546;2023-04-27T03:42:06;101082;;;6.37;81.06
62632;BME280;48703;51.248;-0.546;2023-04-27T03:45:09;101083;;;6.41;80.98
62632;BME280;48703;51.248;-0.546;2023-04-27T03:48:11;101080;;;6.43;81.14
62632;BME280;48703;51.248;-0.546;2023-04-27T03:51:12;101077;;;6.46;81.06
62632;BME280;48703;51.248;-0.546;2023-04-27T03:54:15;101075;;;6.48;81.25
62632;BME280;48703;51.248;-0.546;2023-04-27T03:57:17;101076;;;6.50;81.16
62632;BME280;48703;51.248;-0.546;2023-04-27T04:00:19;101070;;;6.50;80.52
62632;BME280;48703;51.248;-0.546;2023-04-27T04:03:21;101064;;;6.48;81.26
62632;BME280;48703;51.248;-0.546;2023-04-27T04:06:23;101068;;;6.50;80.99
62632;BME280;48703;51.248;-0.546;2023-04-27T04:09:25;101067;;;6.51;80.72
62632;BME280;48703;51.248;-0.546;2023-04-27T04:12:27;101066;;;6.54;80.75
62632;BME280;48703;51.248;-0.546;2023-04-27T04:15:29;101063;;;6.55;80.86
62632;BME280;48703;51.248;-0.546;2023-04-27T04:18:31;101058;;;6.57;80.82
62632;BME280;48703;51.248;-0.546;2023-04-27T04:21:33;101055;;;6.59;80.99
62632;BME280;48703;51.248;-0.546;2023-04-27T04:24:35;101054;;;6.59;80.86
62632;BME280;48703;51.248;-0.546;2023-04-27T04:27:37;101049;;;6.61;80.78
62632;BME280;48703;51.248;-0.546;2023-04-27T04:30:39;101048;;;6.59;80.88
62632;BME280;48703;51.248;-0.546;2023-04-27T04:33:41;101047;;;6.55;81.56
62632;BME280;48703;51.248;-0.546;2023-04-27T04:36:43;101042;;;6.52;81.05
62632;BME280;48703;51.248;-0.546;2023-04-27T04:39:45;101038;;;6.51;81.01
62632;BME280;48703;51.248;-0.546;2023-04-27T04:42:47;101032;;;6.49;81.13
62632;BME280;48703;51.248;-0.546;2023-04-27T04:45:49;101030;;;6.47;81.09
62632;BME280;48703;51.248;-0.546;2023-04-27T04:48:51;101030;;;6.45;80.52
62632;BME280;48703;51.248;-0.546;2023-04-27T04:51:53;101027;;;6.45;81.41
62632;BME280;48703;51.248;-0.546;2023-04-27T04:54:55;101027;;;6.43;80.69
62632;BME280;48703;51.248;-0.546;2023-04-27T04:57:57;101026;;;6.46;81.35
62632;BME280;48703;51.248;-0.546;2023-04-27T05:00:59;101028;;;6.49;80.88
62632;BME280;48703;51.248;-0.546;2023-04-27T05:04:01;101031;;;6.53;80.34
62632;BME280;48703;51.248;-0.546;2023-04-27T05:07:03;101030;;;6.56;80.82
62632;BME280;48703;51.248;-0.546;2023-04-27T05:10:05;101026;;;6.59;80.96
62632;BME280;48703;51.248;-0.546;2023-04-27T05:13:07;101022;;;6.62;80.86
62632;BME280;48703;51.248;-0.546;2023-04-27T05:16:09;101026;;;6.67;80.09
62632;BME280;48703;51.248;-0.546;2023-04-27T05:19:11;101031;;;6.71;80.41
62632;BME280;48703;51.248;-0.546;2023-04-27T05:22:13;101034;;;6.75;80.09
62632;BME280;48703;51.248;-0.546;2023-04-27T05:25:15;101036;;;6.78;80.09
62632;BME280;48703;51.248;-0.546;2023-04-27T05:28:17;101038;;;6.82;79.62
62632;BME280;48703;51.248;-0.546;2023-04-27T05:31:19;101042;;;6.85;79.87
62632;BME280;48703;51.248;-0.546;2023-04-27T05:34:21;101046;;;6.90;79.84
62632;BME280;48703;51.248;-0.546;2023-04-27T05:37:23;101044;;;6.92;79.88
62632;BME280;48703;51.248;-0.546;2023-04-27T05:40:25;101041;;;6.95;79.83
62632;BME280;48703;51.248;-0.546;2023-04-27T05:43:27;101038;;;7.00;80.31
62632;BME280;48703;51.248;-0.546;2023-04-27T05:46:29;101033;;;7.02;79.87
62632;BME280;48703;51.248;-0.546;2023-04-27T05:49:31;101030;;;7.06;79.59
62632;BME280;48703;51.248;-0.546;2023-04-27T05:52:33;101028;;;7.11;80.05
62632;BME280;48703;51.248;-0.546;2023-04-27T05:55:35;101015;;;7.16;79.94
62632;BME280;48703;51.248;-0.546;2023-04-27T05:58:37;101015;;;7.20;79.49
62632;BME280;48703;51.248;-0.546;2023-04-27T06:01:39;101017;;;7.23;80.04
62632;BME280;48703;51.248;-0.546;2023-04-27T06:04:41;101022;;;7.26;79.22
62632;BME280;48703;51.248;-0.546;2023-04-27T06:07:43;101034;;;7.31;79.82
62632;BME280;48703;51.248;-0.546;2023-04-27T06:10:45;101034;;;7.35;79.02
62632;BME280;48703;51.248;-0.546;2023-04-27T06:13:47;101035;;;7.38;78.63
62632;BME280;48703;51.248;-0.546;2023-04-27T06:16:49;101034;;;7.42;79.32
62632;BME280;48703;51.248;-0.546;2023-04-27T06:19:51;101025;;;7.46;78.80
62632;BME280;48703;51.248;-0.546;2023-04-27T06:22:53;101025;;;7.49;78.26
62632;BME280;48703;51.248;-0.546;2023-04-27T06:25:55;101028;;;7.54;78.16
62632;BME280;48703;51.248;-0.546;2023-04-27T06:28:57;101029;;;7.59;78.56
62632;BME280;48703;51.248;-0.546;2023-04-27T06:31:59;101036;;;7.63;78.19
62632;BME280;48703;51.248;-0.546;2023-04-27T06:35:01;101042;;;7.67;78.57
62632;BME280;48703;51.248;-0.546;2023-04-27T06:38:03;101044;;;7.71;77.93
62632;BME280;48703;51.248;-0.546;2023-04-27T06:41:05;101040;;;7.74;77.40
62632;BME280;48703;51.248;-0.546;2023-04-27T06:44:07;101042;;;7.78;77.65
62632;BME280;48703;51.248;-0.546;2023-04-27T06:47:09;101039;;;7.82;76.88
62632;BME280;48703;51.248;-0.546;2023-04-27T06:50:12;101032;;;7.87;77.43
62632;BME280;48703;51.248;-0.546;2023-04-27T06:53:13;101027;;;7.92;77.36
62632;BME280;48703;51.248;-0.546;2023-04-27T06:56:15;101032;;;7.95;77.18
62632;BME280;48703;51.248;-0.546;2023-04-27T06:59:18;101039;;;7.99;77.80
62632;BME280;48703;51.248;-0.546;2023-04-27T07:02:20;101039;;;7.99;76.72
62632;BME280;48703;51.248;-0.546;2023-04-27T07:05:22;101037;;;8.02;76.63
62632;BME280;48703;51.248;-0.546;2023-04-27T07:08:24;101040;;;8.05;76.60
62632;BME280;48703;51.248;-0.546;2023-04-27T07:11:26;101039;;;8.08;77.12
62632;BME280;48703;51.248;-0.546;2023-04-27T07:14:28;101032;;;8.13;76.60
62632;BME280;48703;51.248;-0.546;2023-04-27T07:17:30;101031;;;8.18;76.66
62632;BME280;48703;51.248;-0.546;2023-04-27T07:20:32;101024;;;8.24;76.50
62632;BME280;48703;51.248;-0.546;2023-04-27T07:23:34;101027;;;8.31;76.45
62632;BME280;48703;51.248;-0.546;2023-04-27T07:26:36;101030;;;8.40;77.16
62632;BME280;48703;51.248;-0.546;2023-04-27T07:29:38;101033;;;8.46;75.78
62632;BME280;48703;51.248;-0.546;2023-04-27T07:32:40;101034;;;8.55;76.12
62632;BME280;48703;51.248;-0.546;2023-04-27T07:35:42;101037;;;8.64;74.90
62632;BME280;48703;51.248;-0.546;2023-04-27T07:38:44;101034;;;8.73;75.48
62632;BME280;48703;51.248;-0.546;2023-04-27T07:41:46;101023;;;8.82;75.21
62632;BME280;48703;51.248;-0.546;2023-04-27T07:44:48;101020;;;8.92;74.78
62632;BME280;48703;51.248;-0.546;2023-04-27T07:47:50;101021;;;9.04;75.50
62632;BME280;48703;51.248;-0.546;2023-04-27T07:50:52;101020;;;9.13;74.29
62632;BME280;48703;51.248;-0.546;2023-04-27T07:53:54;101023;;;9.21;74.48
62632;BME280;48703;51.248;-0.546;2023-04-27T07:56:56;101027;;;9.29;74.15
62632;BME280;48703;51.248;-0.546;2023-04-27T07:59:58;101029;;;9.37;73.96
62632;BME280;48703;51.248;-0.546;2023-04-27T08:03:00;101030;;;9.44;73.43
62632;BME280;48703;51.248;-0.546;2023-04-27T08:06:02;101022;;;9.48;72.28
62632;BME280;48703;51.248;-0.546;2023-04-27T08:09:04;101009;;;9.53;72.32
62632;BME280;48703;51.248;-0.546;2023-04-27T08:12:06;101012;;;9.58;72.24
62632;BME280;48703;51.248;-0.546;2023-04-27T08:15:09;101020;;;9.62;72.17
62632;BME280;48703;51.248;-0.546;2023-04-27T08:18:10;101020;;;9.68;72.23
62632;BME280;48703;51.248;-0.546;2023-04-27T08:21:12;101022;;;9.75;73.22
62632;BME280;48703;51.248;-0.546;2023-04-27T08:24:14;101018;;;9.81;72.14
62632;BME280;48703;51.248;-0.546;2023-04-27T08:27:16;101007;;;9.87;71.76
62632;BME280;48703;51.248;-0.546;2023-04-27T08:30:18;101009;;;9.91;71.01
62632;BME280;48703;51.248;-0.546;2023-04-27T08:33:20;101005;;;9.98;72.51
62632;BME280;48703;51.248;-0.546;2023-04-27T08:36:22;100996;;;10.05;71.12
62632;BME280;48703;51.248;-0.546;2023-04-27T08:39:24;100988;;;10.08;69.58
62632;BME280;48703;51.248;-0.546;2023-04-27T08:42:26;100981;;;10.13;69.69
62632;BME280;48703;51.248;-0.546;2023-04-27T08:45:28;100981;;;10.23;70.43
62632;BME280;48703;51.248;-0.546;2023-04-27T08:48:30;100982;;;10.33;70.65
62632;BME280;48703;51.248;-0.546;2023-04-27T08:51:32;100982;;;10.42;70.46
62632;BME280;48703;51.248;-0.546;2023-04-27T08:54:34;100975;;;10.51;70.54
62632;BME280;48703;51.248;-0.546;2023-04-27T08:57:36;100978;;;10.59;70.59
62632;BME280;48703;51.248;-0.546;2023-04-27T09:00:40;100973;;;10.68;69.79
62632;BME280;48703;51.248;-0.546;2023-04-27T09:03:41;100972;;;10.75;69.04
62632;BME280;48703;51.248;-0.546;2023-04-27T09:06:42;100974;;;10.85;69.31
62632;BME280;48703;51.248;-0.546;2023-04-27T09:09:45;100966;;;10.94;69.11
62632;BME280;48703;51.248;-0.546;2023-04-27T09:12:53;100960;;;11.03;67.28
62632;BME280;48703;51.248;-0.546;2023-04-27T09:15:50;100955;;;11.07;67.01
62632;BME280;48703;51.248;-0.546;2023-04-27T09:18:51;100951;;;11.12;67.21
62632;BME280;48703;51.248;-0.546;2023-04-27T09:22:01;100954;;;11.20;67.64
62632;BME280;48703;51.248;-0.546;2023-04-27T09:24:55;100952;;;11.28;66.92
62632;BME280;48703;51.248;-0.546;2023-04-27T09:27:57;100959;;;11.35;67.08
62632;BME280;48703;51.248;-0.546;2023-04-27T09:30:59;100961;;;11.42;66.66
62632;BME280;48703;51.248;-0.546;2023-04-27T09:34:01;100957;;;11.47;66.37
62632;BME280;48703;51.248;-0.546;2023-04-27T09:37:03;100955;;;11.51;65.55
62632;BME280;48703;51.248;-0.546;2023-04-27T09:40:05;100953;;;11.58;65.61
62632;BME280;48703;51.248;-0.546;2023-04-27T09:43:07;100948;;;11.65;66.02
62632;BME280;48703;51.248;-0.546;2023-04-27T09:46:09;100948;;;11.73;66.51
62632;BME280;48703;51.248;-0.546;2023-04-27T09:49:11;100949;;;11.79;66.58
62632;BME280;48703;51.248;-0.546;2023-04-27T09:52:13;100943;;;11.91;67.52
62632;BME280;48703;51.248;-0.546;2023-04-27T09:55:15;100941;;;11.98;65.54
62632;BME280;48703;51.248;-0.546;2023-04-27T09:58:31;100939;;;12.07;65.72
62632;BME280;48703;51.248;-0.546;2023-04-27T10:01:21;100939;;;12.14;65.00
62632;BME280;48703;51.248;-0.546;2023-04-27T10:04:26;100941;;;12.17;64.37
62632;BME280;48703;51.248;-0.546;2023-04-27T10:07:24;100940;;;12.17;64.20
62632;BME280;48703;51.248;-0.546;2023-04-27T10:10:25;100939;;;12.16;63.66
62632;BME280;48703;51.248;-0.546;2023-04-27T10:13:30;100933;;;12.13;63.51
62632;BME280;48703;51.248;-0.546;2023-04-27T10:16:38;100930;;;12.10;63.43
62632;BME280;48703;51.248;-0.546;2023-04-27T10:19:31;100928;;;12.08;63.88
62632;BME280;48703;51.248;-0.546;2023-04-27T10:22:37;100928;;;12.12;64.72
62632;BME280;48703;51.248;-0.546;2023-04-27T10:25:36;100923;;;12.18;64.31
62632;BME280;48703;51.248;-0.546;2023-04-27T10:28:37;100917;;;12.20;63.94
62632;BME280;48703;51.248;-0.546;2023-04-27T10:31:42;100913;;;12.22;64.14
62632;BME280;48703;51.248;-0.546;2023-04-27T10:34:41;100909;;;12.26;63.89
62632;BME280;48703;51.248;-0.546;2023-04-27T10:37:43;100902;;;12.32;63.86
62632;BME280;48703;51.248;-0.546;2023-04-27T10:40:52;100898;;;12.41;63.89
62632;BME280;48703;51.248;-0.546;2023-04-27T10:43:47;100896;;;12.54;63.75
62632;BME280;48703;51.248;-0.546;2023-04-27T10:46:50;100883;;;12.67;63.31
62632;BME280;48703;51.248;-0.546;2023-04-27T10:49:51;100878;;;12.81;62.73
62632;BME280;48703;51.248;-0.546;2023-04-27T10:52:53;100879;;;12.88;63.49
62632;BME280;48703;51.248;-0.546;2023-04-27T10:55:56;100881;;;12.96;62.57
62632;BME280;48703;51.248;-0.546;2023-04-27T10:59:00;100883;;;13.04;63.34
62632;BME280;48703;51.248;-0.546;2023-04-27T11:01:59;100878;;;13.16;63.26
62632;BME280;48703;51.248;-0.546;2023-04-27T11:05:01;100878;;;13.27;63.08
62632;BME280;48703;51.248;-0.546;2023-04-27T11:08:04;100878;;;13.34;61.74
62632;BME280;48703;51.248;-0.546;2023-04-27T11:11:05;100873;;;13.40;62.44
62632;BME280;48703;51.248;-0.546;2023-04-27T11:14:07;100862;;;13.50;62.53
62632;BME280;48703;51.248;-0.546;2023-04-27T11:17:09;100866;;;13.63;62.61
62632;BME280;48703;51.248;-0.546;2023-04-27T11:20:11;100863;;;13.81;63.13
62632;BME280;48703;51.248;-0.546;2023-04-27T11:23:21;100868;;;14.00;62.83
62632;BME280;48703;51.248;-0.546;2023-04-27T11:26:16;100872;;;14.08;61.24
62632;BME280;48703;51.248;-0.546;2023-04-27T11:29:17;100865;;;14.03;60.06
62632;BME280;48703;51.248;-0.546;2023-04-27T11:32:20;100866;;;13.95;59.68
62632;BME280;48703;51.248;-0.546;2023-04-27T11:35:31;100869;;;13.91;60.57
62632;BME280;48703;51.248;-0.546;2023-04-27T11:38:24;100867;;;13.90;61.21
62632;BME280;48703;51.248;-0.546;2023-04-27T11:41:32;100866;;;13.88;61.25
62632;BME280;48703;51.248;-0.546;2023-04-27T11:44:28;100866;;;13.86;61.26
62632;BME280;48703;51.248;-0.546;2023-04-27T11:47:30;100867;;;13.85;61.45
62632;BME280;48703;51.248;-0.546;2023-04-27T11:50:32;100858;;;13.86;61.58
62632;BME280;48703;51.248;-0.546;2023-04-27T11:53:35;100847;;;13.85;61.47
62632;BME280;48703;51.248;-0.546;2023-04-27T11:56:36;100837;;;13.82;61.19
62632;BME280;48703;51.248;-0.546;2023-04-27T11:59:38;100829;;;13.82;60.43
62632;BME280;48703;51.248;-0.546;2023-04-27T12:02:40;100819;;;13.89;60.87
62632;BME280;48703;51.248;-0.546;2023-04-27T12:05:46;100814;;;13.97;60.48
62632;BME280;48703;51.248;-0.546;2023-04-27T12:08:44;100806;;;14.06;60.05
62632;BME280;48703;51.248;-0.546;2023-04-27T12:11:46;100789;;;14.16;60.20
62632;BME280;48703;51.248;-0.546;2023-04-27T12:14:48;100777;;;14.29;60.79
62632;BME280;48703;51.248;-0.546;2023-04-27T12:17:50;100769;;;14.37;59.06
62632;BME280;48703;51.248;-0.546;2023-04-27T12:20:52;100764;;;14.40;58.88
62632;BME280;48703;51.248;-0.546;2023-04-27T12:23:54;100763;;;14.47;58.84
62632;BME280;48703;51.248;-0.546;2023-04-27T12:26:56;100764;;;14.48;58.20
62632;BME280;48703;51.248;-0.546;2023-04-27T12:29:58;100764;;;14.47;58.21
62632;BME280;48703;51.248;-0.546;2023-04-27T12:33:00;100765;;;14.41;58.11
62632;BME280;48703;51.248;-0.546;2023-04-27T12:36:02;100761;;;14.38;58.85
62632;BME280;48703;51.248;-0.546;2023-04-27T12:39:12;100756;;;14.36;58.85
62632;BME280;48703;51.248;-0.546;2023-04-27T12:42:06;100760;;;14.34;59.37
62632;BME280;48703;51.248;-0.546;2023-04-27T12:45:08;100758;;;14.33;59.47
62632;BME280;48703;51.248;-0.546;2023-04-27T12:48:10;100748;;;14.32;59.67
62632;BME280;48703;51.248;-0.546;2023-04-27T12:51:12;100750;;;14.31;59.12
62632;BME280;48703;51.248;-0.546;2023-04-27T12:54:14;100747;;;14.24;58.53
62632;BME280;48703;51.248;-0.546;2023-04-27T12:57:16;100748;;;14.16;58.95
62632;BME280;48703;51.248;-0.546;2023-04-27T13:00:18;100745;;;14.10;59.50
62632;BME280;48703;51.248;-0.546;2023-04-27T13:03:20;100741;;;14.05;59.63
62632;BME280;48703;51.248;-0.546;2023-04-27T13:06:23;100743;;;13.99;59.58
62632;BME280;48703;51.248;-0.546;2023-04-27T13:09:24;100752;;;13.93;59.22
62632;BME280;48703;51.248;-0.546;2023-04-27T13:12:26;100756;;;13.90;59.26
62632;BME280;48703;51.248;-0.546;2023-04-27T13:15:28;100755;;;13.82;59.08
62632;BME280;48703;51.248;-0.546;2023-04-27T13:18:30;100749;;;13.77;59.38
62632;BME280;48703;51.248;-0.546;2023-04-27T13:21:32;100747;;;13.72;59.59
62632;BME280;48703;51.248;-0.546;2023-04-27T13:24:34;100751;;;13.68;59.64
62632;BME280;48703;51.248;-0.546;2023-04-27T13:27:36;100755;;;13.64;60.08
62632;BME280;48703;51.248;-0.546;2023-04-27T13:30:38;100754;;;13.59;60.03
62632;BME280;48703;51.248;-0.546;2023-04-27T13:33:41;100754;;;13.54;60.64
62632;BME280;48703;51.248;-0.546;2023-04-27T13:36:42;100751;;;13.51;60.48
62632;BME280;48703;51.248;-0.546;2023-04-27T13:39:44;100743;;;13.48;60.91
62632;BME280;48703;51.248;-0.546;2023-04-27T13:42:46;100739;;;13.45;60.05
62632;BME280;48703;51.248;-0.546;2023-04-27T13:45:48;100732;;;13.42;60.01
62632;BME280;48703;51.248;-0.546;2023-04-27T13:48:50;100726;;;13.40;60.57
62632;BME280;48703;51.248;-0.546;2023-04-27T13:51:52;100723;;;13.40;60.82
62632;BME280;48703;51.248;-0.546;2023-04-27T13:54:54;100717;;;13.38;61.11
62632;BME280;48703;51.248;-0.546;2023-04-27T13:57:56;100713;;;13.38;61.27
62632;BME280;48703;51.248;-0.546;2023-04-27T14:00:58;100713;;;13.36;61.37
62632;BME280;48703;51.248;-0.546;2023-04-27T14:04:00;100712;;;13.35;61.70
62632;BME280;48703;51.248;-0.546;2023-04-27T14:07:02;100714;;;13.35;61.63
62632;BME280;48703;51.248;-0.546;2023-04-27T14:10:05;100716;;;13.36;62.05
62632;BME280;48703;51.248;-0.546;2023-04-27T14:13:06;100715;;;13.38;61.90
62632;BME280;48703;51.248;-0.546;2023-04-27T14:16:09;100714;;;13.39;61.92
62632;BME280;48703;51.248;-0.546;2023-04-27T14:19:10;100717;;;13.40;62.18
62632;BME280;48703;51.248;-0.546;2023-04-27T14:22:12;100722;;;13.37;62.43
62632;BME280;48703;51.248;-0.546;2023-04-27T14:25:15;100720;;;13.34;62.52
62632;BME280;48703;51.248;-0.546;2023-04-27T14:28:17;100720;;;13.32;63.85
62632;BME280;48703;51.248;-0.546;2023-04-27T14:31:19;100718;;;13.30;64.29
62632;BME280;48703;51.248;-0.546;2023-04-27T14:33:34;100716;;;13.26;65.12
62632;BME280;48703;51.248;-0.546;2023-04-27T14:36:22;100717;;;13.22;65.06
62632;BME280;48703;51.248;-0.546;2023-04-27T14:39:24;100707;;;13.16;66.09
62632;BME280;48703;51.248;-0.546;2023-04-27T14:42:26;100711;;;13.10;66.93
62632;BME280;48703;51.248;-0.546;2023-04-27T14:45:28;100717;;;13.02;68.27
62632;BME280;48703;51.248;-0.546;2023-04-27T14:48:30;100721;;;12.95;67.30
62632;BME280;48703;51.248;-0.546;2023-04-27T14:51:32;100721;;;12.87;67.87
62632;BME280;48703;51.248;-0.546;2023-04-27T14:54:34;100723;;;12.77;69.57
62632;BME280;48703;51.248;-0.546;2023-04-27T14:57:36;100723;;;12.67;70.96
62632;BME280;48703;51.248;-0.546;2023-04-27T15:00:38;100722;;;12.60;72.15
62632;BME280;48703;51.248;-0.546;2023-04-27T15:03:40;100713;;;12.51;73.73
62632;BME280;48703;51.248;-0.546;2023-04-27T15:06:42;100721;;;12.41;74.79
62632;BME280;48703;51.248;-0.546;2023-04-27T15:09:44;100719;;;12.30;75.49
62632;BME280;48703;51.248;-0.546;2023-04-27T15:12:46;100714;;;12.24;75.49
62632;BME280;48703;51.248;-0.546;2023-04-27T15:15:52;100711;;;12.17;76.58
62632;BME280;48703;51.248;-0.546;2023-04-27T15:18:50;100701;;;12.11;77.00
62632;BME280;48703;51.248;-0.546;2023-04-27T15:21:52;100680;;;12.02;78.92
62632;BME280;48703;51.248;-0.546;2023-04-27T15:24:54;100674;;;11.95;78.81
62632;BME280;48703;51.248;-0.546;2023-04-27T15:27:56;100685;;;11.92;78.01
62632;BME280;48703;51.248;-0.546;2023-04-27T15:30:58;100684;;;11.88;78.23
62632;BME280;48703;51.248;-0.546;2023-04-27T15:34:00;100679;;;11.82;78.79
62632;BME280;48703;51.248;-0.546;2023-04-27T15:37:02;100676;;;11.76;78.77
62632;BME280;48703;51.248;-0.546;2023-04-27T15:40:05;100666;;;11.75;79.64
62632;BME280;48703;51.248;-0.546;2023-04-27T15:43:06;100649;;;11.70;80.07
62632;BME280;48703;51.248;-0.546;2023-04-27T15:46:08;100635;;;11.66;79.56
62632;BME280;48703;51.248;-0.546;2023-04-27T15:49:10;100607;;;11.60;81.36
62632;BME280;48703;51.248;-0.546;2023-04-27T15:52:12;100594;;;11.55;81.45
62632;BME280;48703;51.248;-0.546;2023-04-27T15:55:15;100584;;;11.52;80.93
62632;BME280;48703;51.248;-0.546;2023-04-27T15:58:17;100578;;;11.48;80.63
62632;BME280;48703;51.248;-0.546;2023-04-27T16:01:19;100573;;;11.43;81.88
62632;BME280;48703;51.248;-0.546;2023-04-27T16:04:21;100572;;;11.38;81.44
62632;BME280;48703;51.248;-0.546;2023-04-27T16:07:23;100571;;;11.34;81.29
62632;BME280;48703;51.248;-0.546;2023-04-27T16:10:25;100557;;;11.29;81.54
62632;BME280;48703;51.248;-0.546;2023-04-27T16:13:27;100544;;;11.28;81.44
62632;BME280;48703;51.248;-0.546;2023-04-27T16:16:29;100525;;;11.23;80.62
62632;BME280;48703;51.248;-0.546;2023-04-27T16:19:31;100518;;;11.20;80.95
62632;BME280;48703;51.248;-0.546;2023-04-27T16:22:33;100518;;;11.12;81.22